Time;durP1;ratioP1;P1;durP2;ratioP2;P2;SDS_P1;SDS_P2;PMS_P1;PMS_P2;Temp;Humidity;BMP_temperature;BMP_pressure;BME280_temperature;BME280_humidity;BME280_pressure;Samples;Min_cycle;Max_cycle;Signal;HPM_P1;HPM_P2
2021/12/10 00:01:11;;;;;;;23.80;17.20;;;3.60;99.90;;;;;;5018513;28;20471;-92
2021/12/10 00:03:47;;;;;;;23.38;16.35;;;3.60;99.90;;;;;;5004191;28;20183;-90
2021/12/10 00:06:19;;;;;;;26.23;17.80;;;3.60;99.90;;;;;;5003659;28;20230;-92
2021/12/10 00:08:50;;;;;;;28.25;18.25;;;3.60;99.90;;;;;;5018350;28;20179;-90
2021/12/10 00:11:22;;;;;;;24.20;16.52;;;3.60;99.90;;;;;;5001913;28;20195;-90
2021/12/10 00:13:48;;;;;;;24.15;17.73;;;3.60;99.90;;;;;;5001274;28;20215;-89
2021/12/10 00:16:18;;;;;;;23.23;16.37;;;3.60;99.90;;;;;;5000893;28;20695;-92
2021/12/10 00:18:51;;;;;;;24.35;17.65;;;3.60;99.90;;;;;;5017892;28;20739;-90
2021/12/10 00:21:18;;;;;;;28.38;18.25;;;3.60;99.90;;;;;;5000137;28;20306;-92
2021/12/10 00:23:49;;;;;;;27.17;17.85;;;3.60;99.90;;;;;;5000422;28;20196;-92
2021/12/10 00:26:14;;;;;;;24.83;17.05;;;3.60;99.90;;;;;;4999961;28;20194;-93
2021/12/10 00:28:41;;;;;;;26.97;18.50;;;3.60;99.90;;;;;;4999998;28;20266;-92
2021/12/10 00:31:19;;;;;;;25.27;18.08;;;3.60;99.90;;;;;;5000017;28;20428;-90
2021/12/10 00:33:54;;;;;;;25.95;17.38;;;3.60;99.90;;;;;;5000099;28;20241;-90
2021/12/10 00:36:20;;;;;;;26.70;17.08;;;3.60;99.90;;;;;;5018234;28;20190;-90
2021/12/10 00:38:46;;;;;;;28.42;19.38;;;3.60;99.90;;;;;;5017641;28;20179;-90
2021/12/10 00:41:12;;;;;;;29.23;19.45;;;3.60;99.90;;;;;;5016917;28;20219;-92
2021/12/10 00:43:39;;;;;;;32.13;20.40;;;3.60;99.90;;;;;;5031224;28;20252;-91
2021/12/10 00:46:05;;;;;;;28.92;17.75;;;3.60;99.90;;;;;;5035722;28;20234;-90
2021/12/10 00:48:31;;;;;;;35.30;20.80;;;3.60;99.90;;;;;;5041450;28;20194;-90
2021/12/10 00:50:59;;;;;;;32.10;20.77;;;3.70;99.90;;;;;;5041744;28;20244;-89
2021/12/10 00:53:25;;;;;;;30.23;19.80;;;3.60;99.90;;;;;;5019532;28;20703;-90
2021/12/10 00:55:52;;;;;;;28.80;18.33;;;3.70;99.90;;;;;;5019190;28;20347;-92
2021/12/10 00:58:19;;;;;;;36.35;20.73;;;3.60;99.90;;;;;;5036769;28;20182;-90
2021/12/10 01:00:51;;;;;;;36.22;20.60;;;3.70;99.90;;;;;;5018918;28;20310;-93
2021/12/10 01:03:22;;;;;;;30.30;18.92;;;3.60;99.90;;;;;;5021644;28;20189;-90
2021/12/10 01:05:51;;;;;;;33.72;20.42;;;3.60;99.90;;;;;;5021951;28;20313;-90
2021/12/10 01:08:18;;;;;;;31.98;20.50;;;3.70;99.90;;;;;;5018938;28;20183;-91
2021/12/10 01:10:49;;;;;;;34.42;20.55;;;3.70;99.90;;;;;;5018760;28;20204;-91
2021/12/10 01:13:19;;;;;;;33.70;20.40;;;3.70;99.90;;;;;;5018710;28;20712;-90
2021/12/10 01:24:32;;;;;;;36.05;20.05;;;3.60;99.90;;;;;;5036546;28;20193;-92
2021/12/10 01:27:08;;;;;;;36.38;21.27;;;3.60;99.90;;;;;;5035927;28;20216;-90
2021/12/10 01:29:37;;;;;;;35.22;20.02;;;3.70;99.90;;;;;;5018305;28;20184;-91
2021/12/10 01:32:06;;;;;;;31.05;18.73;;;3.60;99.90;;;;;;5021540;28;20186;-90
2021/12/10 01:34:32;;;;;;;35.42;19.25;;;3.60;99.90;;;;;;5044117;28;20186;-90
2021/12/10 01:36:58;;;;;;;28.52;17.70;;;3.60;99.90;;;;;;5035948;28;20216;-92
2021/12/10 01:39:28;;;;;;;33.15;19.05;;;3.60;99.90;;;;;;5018651;28;20262;-91
2021/12/10 01:42:01;;;;;;;32.47;19.35;;;3.60;99.90;;;;;;5020584;28;20186;-92
2021/12/10 01:44:32;;;;;;;32.30;18.48;;;3.60;99.90;;;;;;5021465;28;20190;-92
2021/12/10 01:47:06;;;;;;;32.28;19.88;;;3.50;99.90;;;;;;5018353;28;20269;-92
2021/12/10 01:49:32;;;;;;;31.23;17.98;;;3.50;99.90;;;;;;5018110;28;20178;-90
2021/12/10 01:51:59;;;;;;;29.15;16.70;;;3.50;99.90;;;;;;5035493;28;20170;-91
2021/12/10 01:54:39;;;;;;;29.65;18.15;;;3.50;99.90;;;;;;5018829;28;20211;-92
2021/12/10 01:57:07;;;;;;;29.58;16.92;;;3.50;99.90;;;;;;5018139;28;20189;-92
2021/12/10 01:59:35;;;;;;;29.38;18.90;;;3.50;99.90;;;;;;5017968;28;20800;-92
2021/12/10 02:02:06;;;;;;;26.05;16.08;;;3.50;99.90;;;;;;5017812;28;20715;-92
2021/12/10 02:04:34;;;;;;;28.15;16.17;;;3.60;99.90;;;;;;5017858;28;20267;-90
2021/12/10 02:07:01;;;;;;;32.20;17.70;;;3.60;99.90;;;;;;5018603;28;20175;-92
2021/12/10 02:09:28;;;;;;;28.75;17.90;;;3.60;99.90;;;;;;5017992;28;20225;-90
2021/12/10 02:11:54;;;;;;;31.55;18.33;;;3.60;99.90;;;;;;5017814;28;20801;-91
2021/12/10 02:14:21;;;;;;;29.43;17.43;;;3.60;99.90;;;;;;5017930;28;20222;-92
2021/12/10 02:16:48;;;;;;;29.27;17.40;;;3.60;99.90;;;;;;5017682;28;20432;-92
2021/12/10 02:19:16;;;;;;;29.23;17.38;;;3.50;99.90;;;;;;5019088;28;20182;-90
2021/12/10 02:21:42;;;;;;;31.05;17.83;;;3.50;99.90;;;;;;5023576;28;20202;-92
2021/12/10 02:24:10;;;;;;;31.30;17.90;;;3.50;99.90;;;;;;5052235;28;20186;-90
2021/12/10 02:26:48;;;;;;;32.97;18.95;;;3.60;99.90;;;;;;5039064;28;20199;-91
2021/12/10 02:29:16;;;;;;;30.55;17.80;;;3.60;99.90;;;;;;5018205;28;20182;-91
2021/12/10 02:31:41;;;;;;;27.08;16.20;;;3.60;99.90;;;;;;5034954;28;20277;-92
2021/12/10 02:34:08;;;;;;;27.80;17.93;;;3.60;99.90;;;;;;5019446;28;20253;-93
2021/12/10 02:36:39;;;;;;;26.05;17.10;;;3.50;99.90;;;;;;5017330;28;20487;-91
2021/12/10 02:39:06;;;;;;;28.63;17.10;;;3.50;99.90;;;;;;5020526;28;20214;-93
2021/12/10 02:41:33;;;;;;;23.77;16.30;;;3.50;99.90;;;;;;5035716;28;20214;-89
2021/12/10 02:44:00;;;;;;;31.50;16.88;;;3.50;99.90;;;;;;5017518;28;20285;-92
2021/12/10 02:46:26;;;;;;;29.10;16.02;;;3.40;99.90;;;;;;5034717;28;20624;-93
2021/12/10 02:48:54;;;;;;;25.20;16.50;;;3.40;99.90;;;;;;5034836;28;20182;-91
2021/12/10 02:51:20;;;;;;;22.92;14.13;;;3.40;99.90;;;;;;5017186;28;20202;-92
2021/12/10 02:53:46;;;;;;;19.20;13.30;;;3.40;99.90;;;;;;5017492;28;20182;-93
2021/12/10 02:56:16;;;;;;;19.30;14.50;;;3.40;99.90;;;;;;5017291;28;20464;-91
2021/12/10 02:58:44;;;;;;;22.13;14.40;;;3.30;99.90;;;;;;5035444;28;20481;-93
2021/12/10 03:01:12;;;;;;;22.77;15.45;;;3.40;99.90;;;;;;5017317;28;20250;-92
2021/12/10 03:03:39;;;;;;;23.08;14.65;;;3.40;99.90;;;;;;5017397;28;20225;-92
2021/12/10 03:06:10;;;;;;;23.60;15.05;;;3.40;99.90;;;;;;5042535;28;20202;-91
2021/12/10 03:08:43;;;;;;;22.88;14.82;;;3.40;99.90;;;;;;5033235;28;20186;-90
2021/12/10 03:11:11;;;;;;;25.67;16.83;;;3.50;99.90;;;;;;5033791;28;20270;-91
2021/12/10 03:13:38;;;;;;;24.70;16.27;;;3.50;99.90;;;;;;5040523;28;20189;-90
2021/12/10 03:16:06;;;;;;;27.75;16.95;;;3.50;99.90;;;;;;5030459;28;20558;-90
2021/12/10 03:18:32;;;;;;;23.63;15.27;;;3.60;99.90;;;;;;5017112;28;20187;-90
2021/12/10 03:20:58;;;;;;;20.23;15.38;;;3.60;99.90;;;;;;5034342;28;20225;-93
2021/12/10 03:23:24;;;;;;;32.10;19.10;;;3.60;99.90;;;;;;5016941;28;20636;-92
2021/12/10 03:25:50;;;;;;;24.83;15.20;;;3.60;99.90;;;;;;5016930;28;20423;-90
2021/12/10 03:28:17;;;;;;;24.80;16.70;;;3.60;99.90;;;;;;5016832;28;20413;-92
2021/12/10 03:30:51;;;;;;;28.23;17.15;;;3.60;99.90;;;;;;5034339;28;20581;-92
2021/12/10 03:33:17;;;;;;;26.67;16.88;;;3.60;99.90;;;;;;5034678;28;20174;-90
2021/12/10 03:35:46;;;;;;;27.45;17.38;;;3.60;99.90;;;;;;5016735;28;20294;-92
2021/12/10 03:38:17;;;;;;;25.77;17.20;;;3.60;99.90;;;;;;5036154;28;20265;-92
2021/12/10 03:40:43;;;;;;;28.63;17.27;;;3.60;99.90;;;;;;5017456;28;20229;-93
2021/12/10 03:43:14;;;;;;;24.05;16.58;;;3.60;99.90;;;;;;5016780;28;20179;-93
2021/12/10 03:45:47;;;;;;;25.63;17.15;;;3.60;99.90;;;;;;5016863;28;20234;-92
2021/12/10 03:48:18;;;;;;;24.50;15.38;;;3.60;99.90;;;;;;5016667;28;20273;-90
2021/12/10 03:50:45;;;;;;;25.92;15.65;;;3.60;99.90;;;;;;5034075;28;20206;-90
2021/12/10 03:53:12;;;;;;;22.55;14.93;;;3.60;99.90;;;;;;5039760;28;20647;-91
2021/12/10 03:55:39;;;;;;;22.92;15.98;;;3.70;99.90;;;;;;5039282;28;20197;-93
2021/12/10 03:58:05;;;;;;;23.77;15.40;;;3.70;99.90;;;;;;5022792;28;20191;-93
2021/12/10 04:00:35;;;;;;;25.17;15.65;;;3.60;99.90;;;;;;5037902;28;20210;-91
2021/12/10 04:03:02;;;;;;;20.95;15.10;;;3.60;99.90;;;;;;5037696;28;20178;-93
2021/12/10 04:05:28;;;;;;;23.33;16.38;;;3.60;99.90;;;;;;5038546;28;20195;-93
2021/12/10 04:07:54;;;;;;;22.90;13.93;;;3.50;99.90;;;;;;5020202;28;20252;-94
2021/12/10 04:10:21;;;;;;;19.17;14.20;;;3.50;99.90;;;;;;5019957;28;20592;-91
2021/12/10 04:12:47;;;;;;;22.10;15.23;;;3.40;99.90;;;;;;5020193;28;20229;-93
2021/12/10 04:15:14;;;;;;;22.27;14.10;;;3.40;99.90;;;;;;5037608;28;20190;-93
2021/12/10 04:17:40;;;;;;;17.95;13.52;;;3.40;99.90;;;;;;5019861;28;20412;-92
2021/12/10 04:20:08;;;;;;;22.20;13.90;;;3.40;99.90;;;;;;5022015;28;20744;-90
2021/12/10 04:22:34;;;;;;;21.17;13.65;;;3.30;99.90;;;;;;5037329;28;20408;-90
2021/12/10 04:25:04;;;;;;;17.17;12.23;;;3.30;99.90;;;;;;5019584;28;20313;-91
2021/12/10 04:27:30;;;;;;;17.85;13.20;;;3.30;99.90;;;;;;5041394;28;20678;-93
2021/12/10 04:29:58;;;;;;;18.90;13.00;;;3.40;99.90;;;;;;5023665;28;20206;-90
2021/12/10 04:32:26;;;;;;;18.83;13.18;;;3.40;99.90;;;;;;5020554;28;20387;-93
2021/12/10 04:34:52;;;;;;;19.17;13.50;;;3.40;99.90;;;;;;5038564;28;20202;-91
2021/12/10 04:37:19;;;;;;;16.35;11.57;;;3.40;99.90;;;;;;5025625;28;20162;-91
2021/12/10 04:39:48;;;;;;;15.63;13.38;;;3.40;99.90;;;;;;5040073;28;20218;-92
2021/12/10 04:42:18;;;;;;;19.55;13.05;;;3.40;99.90;;;;;;5020988;28;20224;-94
2021/12/10 04:44:43;;;;;;;16.85;12.13;;;3.40;99.90;;;;;;5036896;28;20226;-91
2021/12/10 04:47:09;;;;;;;16.77;11.73;;;3.40;99.90;;;;;;5019947;28;20629;-93
2021/12/10 04:49:36;;;;;;;20.10;13.50;;;3.40;99.90;;;;;;5019641;28;20246;-93
2021/12/10 04:52:04;;;;;;;16.65;12.98;;;3.40;99.90;;;;;;5019191;28;20419;-91
2021/12/10 04:54:30;;;;;;;18.48;13.05;;;3.40;99.90;;;;;;5036794;28;20232;-91
2021/12/10 04:56:58;;;;;;;17.27;12.40;;;3.40;99.90;;;;;;5019041;28;20245;-91
2021/12/10 04:59:27;;;;;;;20.55;13.73;;;3.40;99.90;;;;;;5018828;28;20439;-93
2021/12/10 05:01:56;;;;;;;19.83;12.88;;;3.40;99.90;;;;;;5019166;28;20230;-93
2021/12/10 05:04:23;;;;;;;17.35;13.25;;;3.40;99.90;;;;;;5018618;28;20189;-92
2021/12/10 05:06:50;;;;;;;19.30;12.60;;;3.40;99.90;;;;;;5036707;28;20217;-91
2021/12/10 05:09:16;;;;;;;20.88;14.07;;;3.50;99.90;;;;;;5019354;28;20195;-90
2021/12/10 05:11:42;;;;;;;17.65;12.98;;;3.40;99.90;;;;;;5018798;28;20205;-91
2021/12/10 05:14:09;;;;;;;17.52;13.05;;;3.50;99.90;;;;;;5038350;28;20202;-93
2021/12/10 05:16:41;;;;;;;17.42;13.23;;;3.50;99.90;;;;;;5037046;28;20197;-92
2021/12/10 05:19:09;;;;;;;18.90;12.82;;;3.50;99.90;;;;;;5019648;28;20179;-93
2021/12/10 05:21:36;;;;;;;20.95;13.55;;;3.50;99.90;;;;;;5019694;28;20229;-94
2021/12/10 05:24:04;;;;;;;21.25;13.65;;;3.50;99.90;;;;;;5022541;28;20186;-93
2021/12/10 05:26:30;;;;;;;18.58;12.70;;;3.60;99.90;;;;;;5044446;28;20209;-93
2021/12/10 05:28:57;;;;;;;20.00;14.05;;;3.70;99.90;;;;;;5020478;28;20262;-93
2021/12/10 05:31:23;;;;;;;19.75;13.75;;;3.80;99.90;;;;;;4998902;28;20692;-94
2021/12/10 05:33:49;;;;;;;17.58;13.75;;;3.80;99.90;;;;;;5033012;28;20179;-93
2021/12/10 05:36:15;;;;;;;18.87;14.40;;;3.90;99.90;;;;;;5031979;28;20195;-90
2021/12/10 05:38:41;;;;;;;17.67;12.03;;;4.00;99.90;;;;;;5042074;28;20453;-90
2021/12/10 05:41:10;;;;;;;19.50;12.37;;;4.10;99.90;;;;;;5036164;28;20210;-93
2021/12/10 05:43:37;;;;;;;18.83;13.18;;;4.20;99.90;;;;;;5050754;28;20428;-93
2021/12/10 05:46:03;;;;;;;18.67;13.20;;;4.30;99.90;;;;;;5019301;28;20700;-90
2021/12/10 05:48:29;;;;;;;18.15;13.00;;;4.30;99.90;;;;;;5049413;28;20217;-92
2021/12/10 05:50:55;;;;;;;21.52;13.30;;;4.30;99.90;;;;;;5042271;28;20178;-94
2021/12/10 05:53:21;;;;;;;17.55;12.60;;;4.40;99.90;;;;;;5035475;28;20202;-92
2021/12/10 05:55:48;;;;;;;21.10;12.80;;;4.40;99.90;;;;;;5051788;28;20199;-92
2021/12/10 05:58:14;;;;;;;17.30;13.90;;;4.40;99.90;;;;;;5043414;28;20182;-91
2021/12/10 06:00:47;;;;;;;21.95;14.07;;;4.50;99.90;;;;;;5050919;28;20639;-91
2021/12/10 06:03:14;;;;;;;19.00;13.32;;;4.50;99.90;;;;;;5018507;28;20187;-90
2021/12/10 06:05:41;;;;;;;18.73;13.05;;;4.50;99.90;;;;;;5052007;28;20201;-91
2021/12/10 06:08:08;;;;;;;17.83;13.18;;;4.50;99.90;;;;;;5049047;28;20646;-93
2021/12/10 06:10:35;;;;;;;19.25;12.30;;;4.40;99.90;;;;;;5031079;28;20195;-92
2021/12/10 06:13:01;;;;;;;18.75;13.15;;;4.30;99.90;;;;;;5044248;28;20205;-93
2021/12/10 06:15:28;;;;;;;16.30;12.65;;;4.20;99.90;;;;;;5032262;28;20614;-92
2021/12/10 06:17:54;;;;;;;16.75;12.32;;;4.20;99.90;;;;;;5057839;28;20185;-93
2021/12/10 06:20:24;;;;;;;19.13;12.93;;;4.10;99.90;;;;;;5016983;28;20301;-92
2021/12/10 06:22:50;;;;;;;23.55;15.70;;;4.10;99.90;;;;;;5022314;28;20274;-93
2021/12/10 06:25:17;;;;;;;25.98;17.10;;;4.00;99.90;;;;;;5051912;28;20293;-92
2021/12/10 06:27:46;;;;;;;20.65;13.95;;;3.90;99.90;;;;;;5013180;28;20179;-93
2021/12/10 06:30:18;;;;;;;22.45;15.82;;;3.90;99.90;;;;;;5016913;28;20447;-92
2021/12/10 06:32:46;;;;;;;23.92;16.60;;;3.80;99.90;;;;;;5021642;28;20205;-92
2021/12/10 06:35:14;;;;;;;25.98;18.35;;;3.80;99.90;;;;;;5038226;28;20203;-92
2021/12/10 06:37:41;;;;;;;49.10;27.70;;;3.80;99.90;;;;;;5004175;28;20182;-93
2021/12/10 06:40:10;;;;;;;43.35;30.27;;;3.80;99.90;;;;;;5032828;28;20222;-93
2021/12/10 06:42:36;;;;;;;41.15;28.23;;;3.70;99.90;;;;;;5026001;28;20186;-90
2021/12/10 06:45:08;;;;;;;42.10;30.25;;;3.70;99.90;;;;;;5031990;28;20242;-89
2021/12/10 06:47:34;;;;;;;31.05;22.25;;;3.70;99.90;;;;;;5017028;28;20189;-91
2021/12/10 06:50:01;;;;;;;27.65;21.00;;;3.70;99.90;;;;;;5008678;28;20207;-90
2021/12/10 06:52:27;;;;;;;22.25;15.88;;;3.70;99.90;;;;;;5030281;28;20221;-90
2021/12/10 06:54:53;;;;;;;37.73;23.50;;;3.70;99.90;;;;;;5005839;28;20254;-92
2021/12/10 06:57:19;;;;;;;21.90;15.97;;;3.70;99.90;;;;;;5013219;28;20495;-90
2021/12/10 06:59:44;;;;;;;23.00;15.63;;;3.70;99.90;;;;;;5032538;28;20552;-93
2021/12/10 07:02:13;;;;;;;23.50;15.07;;;3.70;99.90;;;;;;5014893;28;20217;-90
2021/12/10 07:04:41;;;;;;;19.40;13.90;;;3.70;99.90;;;;;;5031210;28;20190;-93
2021/12/10 07:07:11;;;;;;;23.15;14.65;;;3.60;99.90;;;;;;5030000;28;20189;-90
2021/12/10 07:09:38;;;;;;;20.08;13.90;;;3.60;99.90;;;;;;5008246;28;20190;-93
2021/12/10 07:12:05;;;;;;;109.43;48.33;;;3.60;99.90;;;;;;5040903;28;20233;-87
2021/12/10 07:14:32;;;;;;;80.50;39.45;;;3.60;99.90;;;;;;5031012;28;20221;-93
2021/12/10 07:16:58;;;;;;;157.52;72.75;;;3.60;99.90;;;;;;5030990;28;20179;-89
2021/12/10 07:19:26;;;;;;;60.75;33.97;;;3.60;99.90;;;;;;5036055;28;20179;-92
2021/12/10 07:21:53;;;;;;;32.22;20.23;;;3.70;99.90;;;;;;5025583;28;20229;-89
2021/12/10 07:24:19;;;;;;;28.05;18.40;;;3.70;99.90;;;;;;5028568;28;20183;-92
2021/12/10 07:26:46;;;;;;;26.00;16.52;;;3.60;99.90;;;;;;5028674;28;20206;-90
2021/12/10 07:29:13;;;;;;;26.17;16.60;;;3.60;99.90;;;;;;5015468;28;20467;-90
2021/12/10 07:31:41;;;;;;;24.50;16.20;;;3.60;99.90;;;;;;5038664;28;20198;-90
2021/12/10 07:34:07;;;;;;;24.30;16.00;;;3.60;99.90;;;;;;5013249;28;20278;-90
2021/12/10 07:36:34;;;;;;;24.60;16.67;;;3.60;99.90;;;;;;5022059;28;20621;-89
2021/12/10 07:39:00;;;;;;;22.52;15.70;;;3.70;99.90;;;;;;5039680;28;20225;-92
2021/12/10 07:41:27;;;;;;;22.02;15.50;;;3.70;99.90;;;;;;5019556;28;20218;-93
2021/12/10 07:43:53;;;;;;;23.38;15.80;;;3.70;99.90;;;;;;5019474;28;20197;-89
2021/12/10 07:46:19;;;;;;;26.33;16.02;;;3.80;99.90;;;;;;5029679;28;20272;-92
2021/12/10 07:48:45;;;;;;;25.00;17.00;;;3.80;99.90;;;;;;5012744;28;20268;-93
2021/12/10 07:51:16;;;;;;;24.92;18.38;;;3.70;99.90;;;;;;5013333;28;20440;-89
2021/12/10 07:53:44;;;;;;;23.85;15.00;;;3.70;99.90;;;;;;5031684;28;20183;-93
2021/12/10 07:56:11;;;;;;;22.00;14.55;;;3.80;99.90;;;;;;5035140;28;20241;-88
2021/12/10 07:58:40;;;;;;;22.50;16.02;;;3.80;99.90;;;;;;5019458;28;20230;-91
2021/12/10 08:01:13;;;;;;;21.63;14.63;;;3.80;99.90;;;;;;5032889;28;20238;-93
2021/12/10 08:03:39;;;;;;;26.45;15.38;;;3.80;99.90;;;;;;5019622;28;20183;-93
2021/12/10 08:06:06;;;;;;;22.70;15.70;;;3.80;99.90;;;;;;5015663;28;20206;-89
2021/12/10 08:08:32;;;;;;;25.15;15.60;;;3.80;99.90;;;;;;5016278;28;20681;-93
2021/12/10 08:10:58;;;;;;;26.40;18.17;;;3.80;99.90;;;;;;5013139;28;20213;-93
2021/12/10 08:13:24;;;;;;;27.23;18.33;;;3.80;99.90;;;;;;5032137;28;20213;-91
2021/12/10 08:15:51;;;;;;;27.92;17.45;;;3.80;99.90;;;;;;5038661;28;20270;-92
2021/12/10 08:18:18;;;;;;;23.90;16.20;;;3.80;99.90;;;;;;5016367;28;20202;-90
2021/12/10 08:20:44;;;;;;;27.20;17.25;;;3.80;99.90;;;;;;5015630;28;20806;-89
2021/12/10 08:23:09;;;;;;;25.03;17.10;;;3.90;99.90;;;;;;5034503;28;20262;-93
2021/12/10 08:25:36;;;;;;;26.03;17.23;;;3.90;99.90;;;;;;5015364;28;20435;-89
2021/12/10 08:28:04;;;;;;;26.50;17.13;;;3.90;99.90;;;;;;5015745;28;20190;-90
2021/12/10 08:30:31;;;;;;;28.60;18.23;;;3.90;99.90;;;;;;5017186;28;20264;-89
2021/12/10 08:32:59;;;;;;;35.13;20.42;;;3.90;99.90;;;;;;5016390;28;20249;-89
2021/12/10 08:35:29;;;;;;;62.50;32.30;;;3.90;99.90;;;;;;5048288;28;20216;-89
2021/12/10 08:38:00;;;;;;;63.13;35.17;;;4.00;99.90;;;;;;5014033;28;20186;-93
2021/12/10 08:40:30;;;;;;;31.83;20.27;;;4.00;99.90;;;;;;5022233;28;20225;-89
2021/12/10 08:42:56;;;;;;;52.80;34.47;;;4.00;99.90;;;;;;5036556;28;20719;-89
2021/12/10 08:45:24;;;;;;;45.87;30.03;;;4.00;99.90;;;;;;5045473;28;20273;-93
2021/12/10 08:47:54;;;;;;;32.05;22.55;;;4.00;99.90;;;;;;5020232;28;20423;-89
2021/12/10 08:50:23;;;;;;;50.00;35.05;;;4.00;99.90;;;;;;5015906;28;20198;-90
2021/12/10 08:52:51;;;;;;;46.90;30.83;;;4.10;99.90;;;;;;5031814;28;20643;-92
2021/12/10 08:55:18;;;;;;;77.18;45.63;;;4.10;99.90;;;;;;5021170;28;20198;-90
2021/12/10 08:57:46;;;;;;;54.97;34.15;;;4.10;99.90;;;;;;5015975;28;20204;-93
2021/12/10 09:00:12;;;;;;;47.60;33.08;;;4.10;99.90;;;;;;5018916;28;20214;-89
2021/12/10 09:02:38;;;;;;;34.47;22.77;;;4.20;99.90;;;;;;5014002;28;20669;-93
2021/12/10 09:05:10;;;;;;;49.70;29.70;;;4.20;99.90;;;;;;5033175;28;20203;-92
2021/12/10 09:07:37;;;;;;;51.88;32.80;;;4.20;99.90;;;;;;5013597;28;20462;-93
2021/12/10 09:10:07;;;;;;;41.55;29.02;;;4.30;99.90;;;;;;5017510;28;20195;-93
2021/12/10 09:12:33;;;;;;;40.67;26.00;;;4.30;99.90;;;;;;5014313;28;20194;-92
2021/12/10 09:15:01;;;;;;;31.30;19.97;;;4.30;99.90;;;;;;5053464;28;20197;-88
2021/12/10 09:17:30;;;;;;;29.88;18.80;;;4.30;99.90;;;;;;5033772;28;20462;-91
2021/12/10 09:19:59;;;;;;;24.90;15.63;;;4.30;99.90;;;;;;5049078;28;20615;-89
2021/12/10 09:22:27;;;;;;;29.00;19.23;;;4.30;99.90;;;;;;5014234;28;20193;-93
2021/12/10 09:24:54;;;;;;;30.10;18.85;;;4.40;99.90;;;;;;5015022;28;20214;-93
2021/12/10 09:27:21;;;;;;;28.88;18.08;;;4.40;99.90;;;;;;5025967;28;20198;-88
2021/12/10 09:29:48;;;;;;;25.65;16.50;;;4.40;99.90;;;;;;5027752;28;20191;-93
2021/12/10 09:32:17;;;;;;;27.05;17.17;;;4.40;99.90;;;;;;5020584;28;20186;-93
2021/12/10 09:34:43;;;;;;;24.00;16.00;;;4.40;99.90;;;;;;5014108;28;20202;-89
2021/12/10 09:37:10;;;;;;;28.85;19.65;;;4.40;99.90;;;;;;5012399;28;20274;-93
2021/12/10 09:39:36;;;;;;;40.08;25.35;;;4.40;99.90;;;;;;5030443;28;20193;-89
2021/12/10 09:42:04;;;;;;;34.28;23.65;;;4.40;99.90;;;;;;5034975;28;20213;-89
2021/12/10 09:44:30;;;;;;;32.00;18.48;;;4.40;99.90;;;;;;5041136;28;20209;-89
2021/12/10 09:46:56;;;;;;;28.80;18.03;;;4.40;99.90;;;;;;5025895;28;20181;-92
2021/12/10 09:49:24;;;;;;;28.10;17.00;;;4.40;99.90;;;;;;5014843;28;21022;-92
2021/12/10 09:51:55;;;;;;;27.50;18.23;;;4.50;99.90;;;;;;5029139;28;20198;-93
2021/12/10 09:54:23;;;;;;;31.58;20.45;;;4.50;99.90;;;;;;5019358;28;20282;-88
2021/12/10 09:57:04;;;;;;;35.88;21.13;;;4.50;99.90;;;;;;5032360;28;20194;-92
2021/12/10 09:59:30;;;;;;;33.10;20.02;;;4.50;99.90;;;;;;5020501;28;20210;-89
2021/12/10 10:01:59;;;;;;;37.08;23.00;;;4.60;99.90;;;;;;5018492;28;20264;-92
2021/12/10 10:04:27;;;;;;;34.42;20.85;;;4.60;99.90;;;;;;5022642;28;20239;-89
2021/12/10 10:07:05;;;;;;;38.75;22.40;;;4.60;99.90;;;;;;5021864;28;20209;-88
2021/12/10 10:09:31;;;;;;;32.08;18.45;;;4.60;99.90;;;;;;5028546;28;20189;-88
2021/12/10 10:12:07;;;;;;;38.15;22.77;;;4.60;99.90;;;;;;5007284;28;20182;-88
2021/12/10 10:14:33;;;;;;;46.60;26.48;;;4.60;99.90;;;;;;5028309;28;20178;-89
2021/12/10 10:17:00;;;;;;;33.08;20.83;;;4.60;99.90;;;;;;5009606;28;20214;-87
2021/12/10 10:19:26;;;;;;;35.30;20.60;;;4.60;99.90;;;;;;5030759;28;20182;-88
2021/12/10 10:21:56;;;;;;;41.38;24.98;;;4.60;99.90;;;;;;5030786;28;20773;-93
2021/12/10 10:24:24;;;;;;;45.80;27.45;;;4.60;99.90;;;;;;5016286;28;20186;-93
2021/12/10 10:26:55;;;;;;;45.83;26.67;;;4.60;99.90;;;;;;5013206;28;20230;-93
2021/12/10 10:29:24;;;;;;;40.35;23.13;;;4.70;99.90;;;;;;5020172;28;20174;-93
2021/12/10 10:31:55;;;;;;;37.97;23.05;;;4.70;99.90;;;;;;5019295;28;20208;-89
2021/12/10 10:34:22;;;;;;;33.60;22.27;;;4.70;99.90;;;;;;5011070;28;20186;-93
2021/12/10 10:36:49;;;;;;;30.60;19.20;;;4.70;99.90;;;;;;5046019;28;20268;-90
2021/12/10 10:39:22;;;;;;;38.47;22.23;;;4.80;99.90;;;;;;5015377;28;20193;-90
2021/12/10 10:41:53;;;;;;;35.55;19.95;;;4.80;99.90;;;;;;5013648;28;20210;-89
2021/12/10 10:44:20;;;;;;;31.13;19.98;;;4.80;99.90;;;;;;5030240;28;20179;-89
2021/12/10 10:46:47;;;;;;;37.97;24.05;;;4.90;99.90;;;;;;5030688;28;20199;-89
2021/12/10 10:49:37;;;;;;;37.25;23.23;;;4.90;99.90;;;;;;5015880;28;20196;-94
2021/12/10 10:52:29;;;;;;;38.65;23.92;;;4.90;99.90;;;;;;5031209;28;20182;-94
2021/12/10 10:55:08;;;;;;;32.55;20.10;;;5.00;99.90;;;;;;5036877;28;20210;-90
2021/12/10 10:57:34;;;;;;;34.45;20.08;;;5.00;99.90;;;;;;5026470;28;20183;-90
2021/12/10 11:00:14;;;;;;;33.23;20.10;;;5.00;99.90;;;;;;5029843;28;20224;-91
2021/12/10 11:02:50;;;;;;;33.55;19.45;;;5.00;99.90;;;;;;5016082;28;20205;-93
2021/12/10 11:05:16;;;;;;;36.78;21.83;;;5.00;99.90;;;;;;5011264;28;20586;-89
2021/12/10 11:07:45;;;;;;;32.93;20.47;;;5.00;99.90;;;;;;5025466;28;20179;-89
2021/12/10 11:10:11;;;;;;;33.17;20.50;;;5.10;99.90;;;;;;5013657;28;20203;-88
2021/12/10 11:12:40;;;;;;;34.03;22.17;;;5.10;99.90;;;;;;5008838;28;20406;-92
2021/12/10 11:15:14;;;;;;;38.03;21.98;;;5.10;99.90;;;;;;5009659;28;20272;-88
2021/12/10 11:17:54;;;;;;;36.67;21.92;;;5.10;99.90;;;;;;5026870;28;20183;-93
2021/12/10 11:20:32;;;;;;;30.20;20.33;;;5.10;99.90;;;;;;5054120;28;20197;-89
2021/12/10 11:23:06;;;;;;;39.45;23.77;;;5.10;99.90;;;;;;5057315;28;20217;-92
2021/12/10 11:25:40;;;;;;;32.53;21.20;;;5.10;99.90;;;;;;5016360;28;20194;-89
2021/12/10 11:28:12;;;;;;;37.88;22.35;;;5.20;99.90;;;;;;5009309;28;20182;-92
2021/12/10 11:30:44;;;;;;;35.45;21.58;;;5.20;99.90;;;;;;5017483;28;20202;-92
2021/12/10 11:33:14;;;;;;;33.53;20.10;;;5.20;99.90;;;;;;5016062;28;20651;-90
2021/12/10 11:35:47;;;;;;;35.47;21.08;;;5.20;99.90;;;;;;5017757;28;20202;-92
2021/12/10 11:38:17;;;;;;;33.53;20.05;;;5.30;99.90;;;;;;5029868;28;20186;-90
2021/12/10 11:41:01;;;;;;;36.33;20.67;;;5.40;99.90;;;;;;5018698;28;20612;-92
2021/12/10 11:49:27;;;;;;;36.95;21.65;;;5.40;99.90;;;;;;5012701;28;20179;-89
2021/12/10 11:51:57;;;;;;;33.03;20.17;;;5.40;99.90;;;;;;5001258;28;20642;-93
2021/12/10 11:54:27;;;;;;;41.08;22.40;;;5.40;99.90;;;;;;5026382;28;20179;-89
2021/12/10 11:56:58;;;;;;;42.13;23.75;;;5.30;99.90;;;;;;4998407;28;20186;-92
2021/12/10 11:59:34;;;;;;;38.67;21.33;;;5.30;99.90;;;;;;5014712;28;20492;-92
2021/12/10 12:02:10;;;;;;;36.50;20.67;;;5.30;99.90;;;;;;5029798;28;20217;-92
2021/12/10 12:04:51;;;;;;;35.38;20.42;;;5.30;99.90;;;;;;4998387;28;20261;-93
2021/12/10 12:07:26;;;;;;;33.95;20.42;;;5.30;99.90;;;;;;5026170;28;20183;-89
2021/12/10 12:10:01;;;;;;;32.28;19.52;;;5.30;99.90;;;;;;4997535;28;20289;-89
2021/12/10 12:12:37;;;;;;;30.88;19.58;;;5.30;99.90;;;;;;4997868;28;20209;-92
2021/12/10 12:15:17;;;;;;;36.00;20.75;;;5.20;99.90;;;;;;4994467;28;20585;-92
2021/12/10 12:17:53;;;;;;;41.80;21.13;;;5.20;99.90;;;;;;5010992;28;20179;-92
2021/12/10 12:20:33;;;;;;;34.42;21.15;;;5.20;99.90;;;;;;5011305;28;20229;-92
2021/12/10 12:26:13;;;;;;;29.00;18.58;;;5.20;99.90;;;;;;5008265;28;20710;-89
2021/12/10 12:28:52;;;;;;;29.88;17.88;;;5.20;99.90;;;;;;4997879;28;20218;-91
2021/12/10 12:31:22;;;;;;;29.95;19.52;;;5.20;99.90;;;;;;4998900;28;20285;-92
2021/12/10 12:34:09;;;;;;;30.08;18.80;;;5.20;99.90;;;;;;4995684;28;20668;-92
2021/12/10 12:36:53;;;;;;;27.20;18.08;;;5.20;99.90;;;;;;5028957;28;20204;-89
2021/12/10 12:39:38;;;;;;;31.67;18.10;;;5.20;99.90;;;;;;5008859;28;20175;-89
2021/12/10 12:42:16;;;;;;;32.35;18.35;;;5.20;99.90;;;;;;5022424;28;20282;-89
2021/12/10 12:44:42;;;;;;;27.88;16.63;;;5.20;99.90;;;;;;5030654;28;20234;-92
2021/12/10 12:47:16;;;;;;;27.92;18.50;;;5.20;99.90;;;;;;5018425;28;20186;-93
2021/12/10 12:49:48;;;;;;;31.48;18.40;;;5.20;99.90;;;;;;5044626;28;20177;-93
2021/12/10 12:52:46;;;;;;;33.70;19.27;;;5.20;99.90;;;;;;5035229;28;20209;-88
2021/12/10 12:55:24;;;;;;;30.58;17.75;;;5.20;99.90;;;;;;5033824;28;20730;-89
2021/12/10 12:58:21;;;;;;;32.25;19.27;;;5.20;99.90;;;;;;5045209;28;20186;-92
2021/12/10 13:01:12;;;;;;;30.88;18.48;;;5.20;99.90;;;;;;5016463;28;20313;-92
2021/12/10 13:03:43;;;;;;;27.92;18.15;;;5.20;99.90;;;;;;5019357;28;20190;-89